createdAt,value
2018-12-10T00:00:48.100Z,7.20
2018-12-10T00:03:14.978Z,7.20
2018-12-10T00:05:41.854Z,7.10
2018-12-10T00:08:08.740Z,7.00
2018-12-10T00:10:41.598Z,7.10
2018-12-10T00:13:04.509Z,7.20
2018-12-10T00:15:31.382Z,7.10
2018-12-10T00:17:58.245Z,6.90
2018-12-10T00:20:25.134Z,6.90
2018-12-10T00:22:52.006Z,7.00
2018-12-10T00:25:18.922Z,6.90
2018-12-10T00:27:45.775Z,6.90
2018-12-10T00:30:12.662Z,6.90
2018-12-10T00:32:39.527Z,6.90
2018-12-10T00:35:06.634Z,6.90
2018-12-10T00:37:33.510Z,6.90
2018-12-10T00:40:00.403Z,6.80
2018-12-10T00:42:27.357Z,6.70
2018-12-10T00:44:54.251Z,6.80
2018-12-10T00:47:21.115Z,6.70
2018-12-10T00:49:48.018Z,6.80
2018-12-10T00:52:14.878Z,6.90
2018-12-10T00:54:41.749Z,7.00
2018-12-10T00:57:08.638Z,7.00
2018-12-10T00:59:35.526Z,6.90
2018-12-10T01:02:02.516Z,6.80
2018-12-10T01:04:29.479Z,6.70
2018-12-10T01:06:56.435Z,6.60
2018-12-10T01:09:23.338Z,6.50
2018-12-10T01:11:50.225Z,6.60
2018-12-10T01:14:17.256Z,6.70
2018-12-10T01:16:44.242Z,6.70
2018-12-10T01:19:11.122Z,6.70
2018-12-10T01:21:38.007Z,6.60
2018-12-10T01:24:04.873Z,6.30
2018-12-10T01:26:31.778Z,6.20
2018-12-10T01:28:58.652Z,6.20
2018-12-10T01:31:25.768Z,5.90
2018-12-10T01:33:52.718Z,5.60
2018-12-10T01:36:19.582Z,5.50
2018-12-10T01:38:46.471Z,5.50
2018-12-10T01:41:13.333Z,5.50
2018-12-10T01:43:40.234Z,5.60
2018-12-10T01:46:07.122Z,5.80
2018-12-10T01:48:33.986Z,5.90
2018-12-10T01:51:00.891Z,5.90
2018-12-10T01:53:27.756Z,6.10
2018-12-10T01:55:54.671Z,6.30
2018-12-10T01:58:21.562Z,6.50
2018-12-10T02:00:48.435Z,6.60
2018-12-10T02:03:15.384Z,6.70
2018-12-10T02:05:42.302Z,6.70
2018-12-10T02:08:09.195Z,6.70
2018-12-10T02:10:36.091Z,6.80
2018-12-10T02:13:03.066Z,6.80
2018-12-10T02:15:29.941Z,6.80
2018-12-10T02:17:56.830Z,6.90
2018-12-10T02:20:23.708Z,6.80
2018-12-10T02:22:50.594Z,6.80
2018-12-10T02:25:17.511Z,6.70
2018-12-10T02:27:44.379Z,6.70
2018-12-10T02:30:11.272Z,6.80
2018-12-10T02:32:38.151Z,6.70
2018-12-10T02:35:05.100Z,6.50
2018-12-10T02:37:31.952Z,6.40
2018-12-10T02:39:58.790Z,6.30
2018-12-10T02:42:25.820Z,6.30
2018-12-10T02:44:52.660Z,6.40
2018-12-10T02:47:19.540Z,6.40
2018-12-10T02:49:46.448Z,6.50
2018-12-10T02:52:13.317Z,6.60
2018-12-10T02:54:40.180Z,6.50
2018-12-10T02:57:07.008Z,6.40
2018-12-10T02:59:33.847Z,6.40
2018-12-10T03:02:00.708Z,6.30
2018-12-10T03:04:27.636Z,6.40
2018-12-10T03:06:54.518Z,6.40
2018-12-10T03:09:21.445Z,6.30
2018-12-10T03:11:48.273Z,6.30
2018-12-10T03:14:15.200Z,6.20
2018-12-10T03:16:42.050Z,6.00
2018-12-10T03:19:08.980Z,6.00
2018-12-10T03:21:35.910Z,6.00
2018-12-10T03:24:02.877Z,5.90
2018-12-10T03:26:29.736Z,5.90
2018-12-10T03:28:56.608Z,5.90
2018-12-10T03:31:23.437Z,6.00
2018-12-10T03:33:50.411Z,6.10
2018-12-10T03:36:17.262Z,6.00
2018-12-10T03:38:44.217Z,6.10
2018-12-10T03:41:11.048Z,6.20
2018-12-10T03:43:37.969Z,6.30
2018-12-10T03:46:04.945Z,6.50
2018-12-10T03:48:31.852Z,6.60
2018-12-10T03:50:58.760Z,6.60
2018-12-10T03:53:25.686Z,6.20
2018-12-10T03:55:52.520Z,6.10
2018-12-10T03:58:19.390Z,6.10
2018-12-10T04:00:46.228Z,6.00
2018-12-10T04:03:13.107Z,6.00
2018-12-10T04:05:40.035Z,6.10
2018-12-10T04:08:06.874Z,6.10
2018-12-10T04:10:33.802Z,6.00
2018-12-10T04:13:00.687Z,6.00
2018-12-10T04:15:27.536Z,6.00
2018-12-10T04:17:54.359Z,5.90
2018-12-10T04:20:21.204Z,5.90
2018-12-10T04:22:48.121Z,5.90
2018-12-10T04:25:14.972Z,5.80
2018-12-10T04:27:41.824Z,5.60
2018-12-10T04:30:08.697Z,5.40
2018-12-10T04:32:35.536Z,5.40
2018-12-10T04:35:02.544Z,5.50
2018-12-10T04:37:29.461Z,5.60
2018-12-10T04:39:56.320Z,5.70
2018-12-10T04:42:23.168Z,5.60
2018-12-10T04:44:50.021Z,5.70
2018-12-10T04:47:16.871Z,5.70
2018-12-10T04:49:43.716Z,5.80
2018-12-10T04:52:10.563Z,5.80
2018-12-10T04:54:38.441Z,5.80
2018-12-10T04:57:05.510Z,5.70
2018-12-10T04:59:32.360Z,5.60
2018-12-10T05:01:59.203Z,5.50
2018-12-10T05:04:26.056Z,5.40
2018-12-10T05:06:52.887Z,5.50
2018-12-10T05:09:19.795Z,5.50
2018-12-10T05:11:46.629Z,5.60
2018-12-10T05:14:13.560Z,5.80
2018-12-10T05:16:40.400Z,6.00
2018-12-10T05:19:07.259Z,6.10
2018-12-10T05:21:34.113Z,6.10
2018-12-10T05:24:00.957Z,6.10
2018-12-10T05:26:27.799Z,5.90
2018-12-10T05:28:54.628Z,6.00
2018-12-10T05:31:21.504Z,6.10
2018-12-10T05:33:48.333Z,6.10
2018-12-10T05:36:15.311Z,6.10
2018-12-10T05:38:42.151Z,6.10
2018-12-10T05:41:08.988Z,6.20
2018-12-10T05:43:35.836Z,6.00
2018-12-10T05:46:02.715Z,6.00
2018-12-10T05:48:29.599Z,6.00
2018-12-10T05:50:56.432Z,6.20
2018-12-10T05:53:23.279Z,6.20
2018-12-10T05:55:50.112Z,6.30
2018-12-10T05:58:17.773Z,6.50
2018-12-10T06:00:44.863Z,6.50
2018-12-10T06:03:11.732Z,6.50
2018-12-10T06:05:38.568Z,6.50
2018-12-10T06:08:05.537Z,6.30
2018-12-10T06:10:32.396Z,6.30
2018-12-10T06:12:59.243Z,6.40
2018-12-10T06:15:26.116Z,6.40
2018-12-10T06:17:52.967Z,6.50
2018-12-10T06:20:19.837Z,6.60
2018-12-10T06:22:46.688Z,6.60
2018-12-10T06:25:13.561Z,6.60
2018-12-10T06:27:40.529Z,6.60
2018-12-10T06:30:07.511Z,6.60
2018-12-10T06:32:34.384Z,6.50
2018-12-10T06:35:01.224Z,6.50
2018-12-10T06:37:28.093Z,6.50
2018-12-10T06:39:54.948Z,6.50
2018-12-10T06:42:21.796Z,6.60
2018-12-10T06:44:48.643Z,6.60
2018-12-10T06:47:15.547Z,6.60
2018-12-10T06:49:42.438Z,6.70
2018-12-10T06:52:09.276Z,6.70
2018-12-10T06:54:36.162Z,6.70
2018-12-10T06:57:03.068Z,6.80
2018-12-10T06:59:29.901Z,6.80
2018-12-10T07:01:56.806Z,6.90
2018-12-10T07:04:23.776Z,6.60
2018-12-10T07:06:50.627Z,6.30
2018-12-10T07:09:17.511Z,6.20
2018-12-10T07:11:44.336Z,6.10
2018-12-10T07:14:11.231Z,6.20
2018-12-10T07:16:38.083Z,6.30
2018-12-10T07:19:05.110Z,6.30
2018-12-10T07:21:32.077Z,6.40
2018-12-10T07:23:58.923Z,6.30
2018-12-10T07:26:25.804Z,6.20
2018-12-10T07:28:52.643Z,6.10
2018-12-10T07:31:19.504Z,6.00
2018-12-10T07:33:46.348Z,5.80
2018-12-10T07:36:13.188Z,5.80
2018-12-10T07:38:40.076Z,5.80
2018-12-10T07:41:06.944Z,6.00
2018-12-10T07:43:33.800Z,6.00
2018-12-10T07:46:00.639Z,6.00
2018-12-10T07:48:27.474Z,6.10
2018-12-10T07:50:54.320Z,5.90
2018-12-10T07:53:21.261Z,5.60
2018-12-10T07:55:48.115Z,5.50
2018-12-10T07:58:14.939Z,5.50
2018-12-10T08:00:41.810Z,5.40
2018-12-10T08:03:08.639Z,5.50
2018-12-10T08:05:35.552Z,5.60
2018-12-10T08:08:02.435Z,5.80
2018-12-10T08:10:29.304Z,5.80
2018-12-10T08:12:56.571Z,6.00
2018-12-10T08:15:23.804Z,6.10
2018-12-10T08:17:50.660Z,6.00
2018-12-10T08:20:17.516Z,6.00
2018-12-10T08:22:44.367Z,6.00
2018-12-10T08:25:11.225Z,6.20
2018-12-10T08:27:38.076Z,6.30
2018-12-10T08:30:05.299Z,6.50
2018-12-10T08:32:32.164Z,6.60
2018-12-10T08:34:59.100Z,6.70
2018-12-10T08:37:25.971Z,6.70
2018-12-10T08:39:52.823Z,6.70
2018-12-10T08:42:19.666Z,6.70
2018-12-10T08:44:46.580Z,6.70
2018-12-10T08:47:16.147Z,6.80
2018-12-10T08:49:42.280Z,6.90
2018-12-10T08:52:09.144Z,7.00
2018-12-10T08:54:35.989Z,7.00
2018-12-10T08:57:02.914Z,6.90
2018-12-10T08:59:29.752Z,6.90
2018-12-10T09:01:56.644Z,7.00
2018-12-10T09:04:23.497Z,7.10
2018-12-10T09:06:50.411Z,7.10
2018-12-10T09:09:17.261Z,7.20
2018-12-10T09:11:44.152Z,7.30
2018-12-10T09:14:11.028Z,7.50
2018-12-10T09:16:37.896Z,7.70
2018-12-10T09:19:04.724Z,7.70
2018-12-10T09:21:31.643Z,7.80
2018-12-10T09:23:58.544Z,7.70
2018-12-10T09:26:25.399Z,7.70
2018-12-10T09:28:52.329Z,7.60
2018-12-10T09:31:19.179Z,7.60
2018-12-10T09:33:46.021Z,7.70
2018-12-10T09:36:12.852Z,7.80
2018-12-10T09:38:39.706Z,7.80
2018-12-10T09:41:06.536Z,7.80
2018-12-10T09:43:33.399Z,7.80
2018-12-10T09:46:00.233Z,7.70
2018-12-10T09:48:27.250Z,7.50
2018-12-10T09:50:54.073Z,7.20
2018-12-10T09:53:20.993Z,7.10
2018-12-10T09:55:48.321Z,7.00
2018-12-10T09:58:15.132Z,7.00
2018-12-10T10:00:41.985Z,6.90
2018-12-10T10:03:08.824Z,6.90
2018-12-10T10:05:35.742Z,6.90
2018-12-10T10:08:02.609Z,6.90
2018-12-10T10:10:29.540Z,6.90
2018-12-10T10:12:56.371Z,6.80
2018-12-10T10:15:23.245Z,6.80
2018-12-10T10:17:50.103Z,6.80
2018-12-10T10:20:17.171Z,6.80
2018-12-10T10:22:44.026Z,6.80
2018-12-10T10:25:10.951Z,6.80
2018-12-10T10:27:37.796Z,6.60
2018-12-10T10:30:04.706Z,6.60
2018-12-10T10:32:31.556Z,6.60
2018-12-10T10:34:58.395Z,6.60
2018-12-10T10:37:25.263Z,6.60
2018-12-10T10:39:52.105Z,6.70
2018-12-10T10:42:18.969Z,6.80
2018-12-10T10:44:45.803Z,7.00
2018-12-10T10:47:12.667Z,7.10
2018-12-10T10:49:39.513Z,7.10
2018-12-10T10:52:06.374Z,7.20
2018-12-10T10:54:33.372Z,7.10
2018-12-10T10:57:00.241Z,7.00
2018-12-10T10:59:27.531Z,6.90
2018-12-10T11:01:54.358Z,6.80
2018-12-10T11:04:21.319Z,6.70
2018-12-10T11:06:48.493Z,6.70
2018-12-10T11:09:15.763Z,6.60
2018-12-10T11:11:42.725Z,6.50
2018-12-10T11:14:09.628Z,6.40
2018-12-10T11:16:36.539Z,6.40
2018-12-10T11:19:03.470Z,6.50
2018-12-10T11:21:30.372Z,6.60
2018-12-10T11:23:57.216Z,6.50
2018-12-10T11:26:24.061Z,6.40
2018-12-10T11:28:51.074Z,6.50
2018-12-10T11:31:18.007Z,6.50
2018-12-10T11:33:44.836Z,6.60
2018-12-10T11:36:11.699Z,6.50
2018-12-10T11:38:38.575Z,6.50
2018-12-10T11:41:05.545Z,6.50
2018-12-10T11:43:32.421Z,6.40
2018-12-10T11:45:59.265Z,6.40
2018-12-10T11:48:26.084Z,6.40
2018-12-10T11:50:52.928Z,6.50
2018-12-10T11:53:19.762Z,6.70
2018-12-10T11:55:46.645Z,6.80
2018-12-10T11:58:13.504Z,6.80
2018-12-10T12:00:40.397Z,6.80
2018-12-10T12:03:07.249Z,6.80
2018-12-10T12:05:34.092Z,6.90
2018-12-10T12:08:00.969Z,7.30
2018-12-10T12:10:27.908Z,7.40
2018-12-10T12:12:54.788Z,7.30
2018-12-10T12:15:21.679Z,7.40
2018-12-10T12:17:48.517Z,7.70
2018-12-10T12:20:15.435Z,7.80
2018-12-10T12:22:42.325Z,7.70
2018-12-10T12:25:09.255Z,7.50
2018-12-10T12:27:36.156Z,7.20
2018-12-10T12:30:04.583Z,7.00
2018-12-10T12:32:31.424Z,7.00
2018-12-10T12:34:58.269Z,6.90
2018-12-10T12:37:25.229Z,6.90
2018-12-10T12:39:52.109Z,6.80
2018-12-10T12:42:18.943Z,6.90
2018-12-10T12:44:45.791Z,7.00
2018-12-10T12:47:12.732Z,7.00
2018-12-10T12:49:39.552Z,7.00
2018-12-10T12:52:06.408Z,6.90
2018-12-10T12:54:33.263Z,6.70
2018-12-10T12:57:00.097Z,6.60
2018-12-10T12:59:27.133Z,6.60
2018-12-10T13:01:54.057Z,6.60
2018-12-10T13:04:20.901Z,6.80
2018-12-10T13:06:47.951Z,6.60
2018-12-10T13:09:21.782Z,6.30
2018-12-10T13:11:43.683Z,6.10
2018-12-10T13:14:10.540Z,5.70
2018-12-10T13:16:37.441Z,5.70
2018-12-10T13:19:04.392Z,5.60
2018-12-10T13:21:31.236Z,5.70
2018-12-10T13:23:58.069Z,6.00
2018-12-10T13:26:24.912Z,6.30
2018-12-10T13:28:52.646Z,6.50
2018-12-10T13:31:19.595Z,6.80
2018-12-10T13:33:46.452Z,7.00
2018-12-10T13:36:13.309Z,7.20
2018-12-10T13:38:40.154Z,7.30
2018-12-10T13:41:07.072Z,7.40
2018-12-10T13:43:33.908Z,7.60
2018-12-10T13:46:00.836Z,7.70
2018-12-10T13:48:27.715Z,7.70
2018-12-10T13:50:54.584Z,7.70
2018-12-10T13:53:21.420Z,7.70
2018-12-10T13:55:48.265Z,7.70
2018-12-10T13:58:15.172Z,7.60
2018-12-10T14:00:42.103Z,7.60
2018-12-10T14:03:09.016Z,7.70
2018-12-10T14:05:35.891Z,7.60
2018-12-10T14:08:02.812Z,7.70
2018-12-10T14:10:29.662Z,7.70
2018-12-10T14:12:56.492Z,7.70
2018-12-10T14:15:23.450Z,7.80
2018-12-10T14:17:50.301Z,7.80
2018-12-10T14:20:17.222Z,7.80
2018-12-10T14:22:44.096Z,7.80
2018-12-10T14:25:25.845Z,7.70
2018-12-10T14:27:52.755Z,7.80
2018-12-10T14:30:19.784Z,7.90
2018-12-10T14:32:46.699Z,7.90
2018-12-10T14:35:13.603Z,7.90
2018-12-10T14:37:40.505Z,7.80
2018-12-10T14:40:07.411Z,7.90
2018-12-10T14:42:42.088Z,8.00
2018-12-10T14:45:08.937Z,7.80
2018-12-10T14:47:35.812Z,7.60
2018-12-10T14:50:02.996Z,7.50
2018-12-10T14:52:29.855Z,7.50
2018-12-10T14:54:56.708Z,7.40
2018-12-10T14:57:23.552Z,7.40
2018-12-10T14:59:50.403Z,7.40
2018-12-10T15:02:17.272Z,7.30
2018-12-10T15:04:44.134Z,7.20
2018-12-10T15:07:11.119Z,7.00
2018-12-10T15:09:37.979Z,6.70
2018-12-10T15:12:04.852Z,6.70
2018-12-10T15:14:31.723Z,6.30
2018-12-10T15:16:58.551Z,6.20
2018-12-10T15:19:25.409Z,6.00
2018-12-10T15:21:52.252Z,5.90
2018-12-10T15:24:19.091Z,5.90
2018-12-10T15:26:45.937Z,5.70
2018-12-10T15:29:12.804Z,5.60
2018-12-10T15:31:39.768Z,5.50
2018-12-10T15:34:06.721Z,5.60
2018-12-10T15:36:33.563Z,5.60
2018-12-10T15:39:00.396Z,5.50
2018-12-10T15:41:27.299Z,5.40
2018-12-10T15:43:54.215Z,5.40
2018-12-10T15:46:21.057Z,5.40
2018-12-10T15:48:47.938Z,5.40
2018-12-10T15:51:14.852Z,5.50
2018-12-10T15:53:41.827Z,5.30
2018-12-10T15:56:08.832Z,5.30
2018-12-10T15:58:35.735Z,5.40
2018-12-10T16:01:02.631Z,5.40
2018-12-10T16:03:29.460Z,5.50
2018-12-10T16:05:56.299Z,5.40
2018-12-10T16:08:23.235Z,5.40
2018-12-10T16:10:50.099Z,5.40
2018-12-10T16:13:16.976Z,5.50
2018-12-10T16:15:43.827Z,5.50
2018-12-10T16:18:10.678Z,5.40
2018-12-10T16:20:37.532Z,5.30
2018-12-10T16:23:04.384Z,5.30
2018-12-10T16:25:31.248Z,5.40
2018-12-10T16:27:58.197Z,5.50
2018-12-10T16:30:25.028Z,5.60
2018-12-10T16:32:51.883Z,5.70
2018-12-10T16:35:18.727Z,5.70
2018-12-10T16:37:45.559Z,5.50
2018-12-10T16:40:12.408Z,5.40
2018-12-10T16:42:39.253Z,5.30
2018-12-10T16:45:07.064Z,5.40
2018-12-10T16:47:33.931Z,5.40
2018-12-10T16:50:00.779Z,5.40
2018-12-10T16:52:27.751Z,5.30
2018-12-10T16:54:54.613Z,5.40
2018-12-10T16:57:21.446Z,5.50
2018-12-10T16:59:48.301Z,5.50
2018-12-10T17:02:15.177Z,5.50
2018-12-10T17:04:42.031Z,5.40
2018-12-10T17:07:08.904Z,5.30
2018-12-10T17:09:35.795Z,5.30
2018-12-10T17:12:02.684Z,5.20
2018-12-10T17:14:29.524Z,5.20
2018-12-10T17:16:56.391Z,5.20
2018-12-10T17:19:23.267Z,5.20
2018-12-10T17:21:50.102Z,5.30
2018-12-10T17:24:16.989Z,5.20
2018-12-10T17:26:43.825Z,5.20
2018-12-10T17:29:10.675Z,5.20
2018-12-10T17:31:37.560Z,5.20
2018-12-10T17:34:04.397Z,5.20
2018-12-10T17:36:31.274Z,5.20
2018-12-10T17:38:58.207Z,5.20
2018-12-10T17:41:25.127Z,5.20
2018-12-10T17:43:52.040Z,5.30
2018-12-10T17:46:18.901Z,5.40
2018-12-10T17:48:45.741Z,5.30
2018-12-10T17:51:12.600Z,5.30
2018-12-10T17:53:39.435Z,5.30
2018-12-10T17:56:06.280Z,5.20
2018-12-10T17:58:33.205Z,5.20
2018-12-10T18:01:00.061Z,5.30
2018-12-10T18:03:26.989Z,5.40
2018-12-10T18:05:53.920Z,5.30
2018-12-10T18:08:21.122Z,5.30
2018-12-10T18:10:48.032Z,5.30
2018-12-10T18:13:14.900Z,5.30
2018-12-10T18:15:41.746Z,5.40
2018-12-10T18:18:08.672Z,5.30
2018-12-10T18:20:35.513Z,5.40
2018-12-10T18:23:02.395Z,5.30
2018-12-10T18:25:29.282Z,5.20
2018-12-10T18:27:56.147Z,5.20
2018-12-10T18:30:23.144Z,5.20
2018-12-10T18:32:49.972Z,5.20
2018-12-10T18:35:16.857Z,5.20
2018-12-10T18:37:43.720Z,5.30
2018-12-10T18:40:10.655Z,5.30
2018-12-10T18:42:37.474Z,5.20
2018-12-10T18:45:08.371Z,5.20
2018-12-10T18:47:35.254Z,5.20
2018-12-10T18:50:02.199Z,5.20
2018-12-10T18:52:29.081Z,5.20
2018-12-10T18:54:55.927Z,5.20
2018-12-10T18:57:22.879Z,5.30
2018-12-10T18:59:49.703Z,5.20
2018-12-10T19:02:16.695Z,5.40
2018-12-10T19:04:43.531Z,5.40
2018-12-10T19:07:10.412Z,5.40
2018-12-10T19:09:37.305Z,5.50
2018-12-10T19:12:04.188Z,5.50
2018-12-10T19:14:31.062Z,5.50
2018-12-10T19:16:57.921Z,5.40
2018-12-10T19:19:24.808Z,5.40
2018-12-10T19:21:51.657Z,5.30
2018-12-10T19:24:18.536Z,5.30
2018-12-10T19:26:45.400Z,5.30
2018-12-10T19:29:12.441Z,5.30
2018-12-10T19:31:39.455Z,5.30
2018-12-10T19:34:06.281Z,5.30
2018-12-10T19:36:33.128Z,5.30
2018-12-10T19:38:59.970Z,5.30
2018-12-10T19:41:26.888Z,5.40
2018-12-10T19:43:53.723Z,5.40
2018-12-10T19:46:20.588Z,5.30
2018-12-10T19:48:47.454Z,5.40
2018-12-10T19:51:14.334Z,5.30
2018-12-10T19:53:41.236Z,5.30
2018-12-10T19:56:08.269Z,5.40
2018-12-10T19:58:35.124Z,5.30
2018-12-10T20:01:02.065Z,5.20
2018-12-10T20:03:28.957Z,5.30
2018-12-10T20:05:55.799Z,5.30
2018-12-10T20:08:22.749Z,5.20
2018-12-10T20:10:49.609Z,5.20
2018-12-10T20:13:16.467Z,5.10
2018-12-10T20:15:43.357Z,5.20
2018-12-10T20:18:10.272Z,5.20
2018-12-10T20:20:37.135Z,5.10
2018-12-10T20:23:04.068Z,5.10
2018-12-10T20:25:30.934Z,5.10
2018-12-10T20:27:57.782Z,5.00
2018-12-10T20:30:24.685Z,5.10
2018-12-10T20:32:51.651Z,5.20
2018-12-10T20:35:18.608Z,5.20
2018-12-10T20:37:45.581Z,5.10
2018-12-10T20:40:12.537Z,5.00
2018-12-10T20:42:39.407Z,5.20
2018-12-10T20:45:07.258Z,5.20
2018-12-10T20:47:34.122Z,5.20
2018-12-10T20:50:01.003Z,5.10
2018-12-10T20:52:27.873Z,5.20
2018-12-10T20:54:54.775Z,5.20
2018-12-10T20:57:21.684Z,5.40
2018-12-10T20:59:48.520Z,5.30
2018-12-10T21:02:15.428Z,5.40
2018-12-10T21:04:42.288Z,5.40
2018-12-10T21:07:09.172Z,5.30
2018-12-10T21:09:36.058Z,5.30
2018-12-10T21:12:02.975Z,5.30
2018-12-10T21:14:29.831Z,5.30
2018-12-10T21:16:56.687Z,5.40
2018-12-10T21:19:23.609Z,5.60
2018-12-10T21:21:50.499Z,5.40
2018-12-10T21:24:17.464Z,5.30
2018-12-10T21:26:44.299Z,5.30
2018-12-10T21:29:11.216Z,5.00
2018-12-10T21:31:38.073Z,5.00
2018-12-10T21:34:04.955Z,5.10
2018-12-10T21:36:31.808Z,5.20
2018-12-10T21:38:58.706Z,5.00
2018-12-10T21:41:25.581Z,5.10
2018-12-10T21:43:52.425Z,5.20
2018-12-10T21:46:19.292Z,5.30
2018-12-10T21:48:46.257Z,5.30
2018-12-10T21:51:13.224Z,5.30
2018-12-10T21:53:40.103Z,5.30
2018-12-10T21:56:06.965Z,5.20
2018-12-10T21:58:33.805Z,5.30
2018-12-10T22:01:00.660Z,5.40
2018-12-10T22:03:27.499Z,5.40
2018-12-10T22:05:54.672Z,5.30
2018-12-10T22:08:21.515Z,5.30
2018-12-10T22:10:48.368Z,5.30
2018-12-10T22:13:15.249Z,5.30
2018-12-10T22:15:42.527Z,5.40
2018-12-10T22:18:09.359Z,5.60
2018-12-10T22:20:36.205Z,5.60
2018-12-10T22:23:03.099Z,5.60
2018-12-10T22:25:29.957Z,5.40
2018-12-10T22:27:56.799Z,5.50
2018-12-10T22:30:23.639Z,5.50
2018-12-10T22:32:50.500Z,5.30
2018-12-10T22:35:17.344Z,5.20
2018-12-10T22:37:44.205Z,5.20
2018-12-10T22:40:11.043Z,5.20
2018-12-10T22:42:37.933Z,5.10
2018-12-10T22:45:05.941Z,5.20
2018-12-10T22:47:32.788Z,5.20
2018-12-10T22:49:59.660Z,5.30
2018-12-10T22:52:26.483Z,5.40
2018-12-10T22:54:53.331Z,5.40
2018-12-10T22:57:20.259Z,5.60
2018-12-10T22:59:47.104Z,5.60
2018-12-10T23:02:13.987Z,5.60
2018-12-10T23:04:40.835Z,5.60
2018-12-10T23:07:08.342Z,5.80
2018-12-10T23:09:35.311Z,5.90
2018-12-10T23:12:02.197Z,5.90
2018-12-10T23:14:29.056Z,6.00
2018-12-10T23:16:56.247Z,6.20
2018-12-10T23:19:23.093Z,6.20
2018-12-10T23:21:50.029Z,6.10
2018-12-10T23:24:16.876Z,5.70
2018-12-10T23:26:43.732Z,5.60
2018-12-10T23:29:10.591Z,5.80
2018-12-10T23:31:37.416Z,5.80
2018-12-10T23:34:04.344Z,5.90
2018-12-10T23:36:31.316Z,5.80
2018-12-10T23:38:58.178Z,5.90
2018-12-10T23:41:25.084Z,5.90
2018-12-10T23:43:51.932Z,5.90
2018-12-10T23:46:18.884Z,5.90
2018-12-10T23:48:45.780Z,5.80
2018-12-10T23:51:12.664Z,5.80
2018-12-10T23:53:39.524Z,5.60
2018-12-10T23:56:06.477Z,5.30
2018-12-10T23:58:33.316Z,5.40
